sensor_id;sensor_type;location;lat;lon;timestamp;temperature;humidity
38237;DHT22;50101;49.438;11.098;2023-06-22T00:01:14;24.20;63.10
38237;DHT22;50101;49.438;11.098;2023-06-22T00:03:41;24.50;63.50
38237;DHT22;50101;49.438;11.098;2023-06-22T00:06:08;24.50;63.50
38237;DHT22;50101;49.438;11.098;2023-06-22T00:08:34;24.50;63.40
38237;DHT22;50101;49.438;11.098;2023-06-22T00:11:01;24.50;63.40
38237;DHT22;50101;49.438;11.098;2023-06-22T00:13:28;24.50;63.30
38237;DHT22;50101;49.438;11.098;2023-06-22T00:15:55;24.50;63.40
38237;DHT22;50101;49.438;11.098;2023-06-22T00:18:21;24.50;63.50
38237;DHT22;50101;49.438;11.098;2023-06-22T00:20:48;24.50;63.30
38237;DHT22;50101;49.438;11.098;2023-06-22T00:23:15;24.50;63.40
38237;DHT22;50101;49.438;11.098;2023-06-22T00:25:43;24.50;63.40
38237;DHT22;50101;49.438;11.098;2023-06-22T00:28:10;24.50;63.40
38237;DHT22;50101;49.438;11.098;2023-06-22T00:30:37;24.50;63.40
38237;DHT22;50101;49.438;11.098;2023-06-22T00:33:03;24.50;63.30
38237;DHT22;50101;49.438;11.098;2023-06-22T00:35:34;24.50;63.30
38237;DHT22;50101;49.438;11.098;2023-06-22T00:38:01;24.50;63.30
38237;DHT22;50101;49.438;11.098;2023-06-22T00:40:29;24.60;63.40
38237;DHT22;50101;49.438;11.098;2023-06-22T00:42:57;24.50;63.30
38237;DHT22;50101;49.438;11.098;2023-06-22T00:45:24;24.50;63.30
38237;DHT22;50101;49.438;11.098;2023-06-22T00:47:53;24.50;63.30
38237;DHT22;50101;49.438;11.098;2023-06-22T00:50:23;24.50;63.40
38237;DHT22;50101;49.438;11.098;2023-06-22T00:52:57;24.50;63.30
38237;DHT22;50101;49.438;11.098;2023-06-22T00:55:25;24.50;63.30
38237;DHT22;50101;49.438;11.098;2023-06-22T00:57:53;24.50;63.30
38237;DHT22;50101;49.438;11.098;2023-06-22T01:00:24;24.50;63.30
38237;DHT22;50101;49.438;11.098;2023-06-22T01:02:52;24.50;63.30
38237;DHT22;50101;49.438;11.098;2023-06-22T01:05:20;24.50;63.30
38237;DHT22;50101;49.438;11.098;2023-06-22T01:10:33;24.50;63.30
38237;DHT22;50101;49.438;11.098;2023-06-22T01:13:08;24.50;63.30
38237;DHT22;50101;49.438;11.098;2023-06-22T01:15:45;24.50;63.30
38237;DHT22;50101;49.438;11.098;2023-06-22T01:18:13;24.50;63.30
38237;DHT22;50101;49.438;11.098;2023-06-22T01:20:40;24.50;63.30
38237;DHT22;50101;49.438;11.098;2023-06-22T01:23:26;24.50;63.30
38237;DHT22;50101;49.438;11.098;2023-06-22T01:26:11;24.50;63.30
38237;DHT22;50101;49.438;11.098;2023-06-22T01:28:44;24.40;63.30
38237;DHT22;50101;49.438;11.098;2023-06-22T01:31:14;24.40;63.30
38237;DHT22;50101;49.438;11.098;2023-06-22T01:33:44;24.40;63.30
38237;DHT22;50101;49.438;11.098;2023-06-22T01:36:12;24.50;63.30
38237;DHT22;50101;49.438;11.098;2023-06-22T01:38:39;24.50;63.30
38237;DHT22;50101;49.438;11.098;2023-06-22T01:41:06;24.50;63.30
38237;DHT22;50101;49.438;11.098;2023-06-22T01:43:34;24.50;63.40
38237;DHT22;50101;49.438;11.098;2023-06-22T01:46:04;24.50;63.30
38237;DHT22;50101;49.438;11.098;2023-06-22T01:48:31;24.50;63.40
38237;DHT22;50101;49.438;11.098;2023-06-22T01:50:58;24.40;63.30
38237;DHT22;50101;49.438;11.098;2023-06-22T01:53:25;24.50;63.30
38237;DHT22;50101;49.438;11.098;2023-06-22T01:55:52;24.40;63.30
38237;DHT22;50101;49.438;11.098;2023-06-22T01:58:21;24.40;63.30
38237;DHT22;50101;49.438;11.098;2023-06-22T02:00:55;24.50;63.30
38237;DHT22;50101;49.438;11.098;2023-06-22T02:03:30;24.50;63.30
38237;DHT22;50101;49.438;11.098;2023-06-22T02:06:05;24.50;63.30
38237;DHT22;50101;49.438;11.098;2023-06-22T02:08:47;24.50;63.30
38237;DHT22;50101;49.438;11.098;2023-06-22T02:11:17;24.50;63.30
38237;DHT22;50101;49.438;11.098;2023-06-22T02:13:45;24.40;63.30
38237;DHT22;50101;49.438;11.098;2023-06-22T02:16:13;24.40;63.30
38237;DHT22;50101;49.438;11.098;2023-06-22T02:18:51;24.40;63.30
38237;DHT22;50101;49.438;11.098;2023-06-22T02:21:21;24.50;63.30
38237;DHT22;50101;49.438;11.098;2023-06-22T02:23:48;24.50;63.30
38237;DHT22;50101;49.438;11.098;2023-06-22T02:26:16;24.40;63.10
38237;DHT22;50101;49.438;11.098;2023-06-22T02:28:44;24.50;63.20
38237;DHT22;50101;49.438;11.098;2023-06-22T02:31:11;24.40;63.10
38237;DHT22;50101;49.438;11.098;2023-06-22T02:33:37;24.40;63.20
38237;DHT22;50101;49.438;11.098;2023-06-22T02:36:05;24.40;63.10
38237;DHT22;50101;49.438;11.098;2023-06-22T02:38:32;24.40;63.00
38237;DHT22;50101;49.438;11.098;2023-06-22T02:41:03;24.50;63.10
38237;DHT22;50101;49.438;11.098;2023-06-22T02:43:29;24.50;63.10
38237;DHT22;50101;49.438;11.098;2023-06-22T02:45:56;24.40;62.90
38237;DHT22;50101;49.438;11.098;2023-06-22T02:48:23;24.40;63.00
38237;DHT22;50101;49.438;11.098;2023-06-22T02:50:50;24.40;62.90
38237;DHT22;50101;49.438;11.098;2023-06-22T02:53:16;24.40;63.00
38237;DHT22;50101;49.438;11.098;2023-06-22T02:55:43;24.40;62.90
38237;DHT22;50101;49.438;11.098;2023-06-22T02:58:10;24.40;62.90
38237;DHT22;50101;49.438;11.098;2023-06-22T03:00:36;24.40;62.90
38237;DHT22;50101;49.438;11.098;2023-06-22T03:03:03;24.40;62.90
38237;DHT22;50101;49.438;11.098;2023-06-22T03:05:30;24.40;62.90
38237;DHT22;50101;49.438;11.098;2023-06-22T03:07:59;24.40;62.90
38237;DHT22;50101;49.438;11.098;2023-06-22T03:10:26;24.40;62.90
38237;DHT22;50101;49.438;11.098;2023-06-22T03:12:54;24.40;63.00
38237;DHT22;50101;49.438;11.098;2023-06-22T03:15:21;24.40;62.90
38237;DHT22;50101;49.438;11.098;2023-06-22T03:17:49;24.40;62.90
38237;DHT22;50101;49.438;11.098;2023-06-22T03:20:15;24.40;63.00
38237;DHT22;50101;49.438;11.098;2023-06-22T03:22:42;24.40;63.10
38237;DHT22;50101;49.438;11.098;2023-06-22T03:25:10;24.40;63.80
38237;DHT22;50101;49.438;11.098;2023-06-22T03:27:37;24.40;63.10
38237;DHT22;50101;49.438;11.098;2023-06-22T03:30:05;24.40;63.30
38237;DHT22;50101;49.438;11.098;2023-06-22T03:32:32;24.40;63.30
38237;DHT22;50101;49.438;11.098;2023-06-22T03:34:59;24.40;63.30
38237;DHT22;50101;49.438;11.098;2023-06-22T03:37:26;24.40;63.10
38237;DHT22;50101;49.438;11.098;2023-06-22T03:39:53;24.40;63.10
38237;DHT22;50101;49.438;11.098;2023-06-22T03:42:20;24.40;63.10
38237;DHT22;50101;49.438;11.098;2023-06-22T03:44:47;24.40;63.20
38237;DHT22;50101;49.438;11.098;2023-06-22T03:47:14;24.40;63.30
38237;DHT22;50101;49.438;11.098;2023-06-22T03:49:41;24.40;63.20
38237;DHT22;50101;49.438;11.098;2023-06-22T03:52:08;24.40;63.00
38237;DHT22;50101;49.438;11.098;2023-06-22T03:54:34;24.40;63.00
38237;DHT22;50101;49.438;11.098;2023-06-22T03:57:01;24.40;63.00
38237;DHT22;50101;49.438;11.098;2023-06-22T03:59:28;24.40;62.90
38237;DHT22;50101;49.438;11.098;2023-06-22T04:01:55;24.40;63.00
38237;DHT22;50101;49.438;11.098;2023-06-22T04:04:21;24.40;63.00
38237;DHT22;50101;49.438;11.098;2023-06-22T04:06:48;24.40;63.10
38237;DHT22;50101;49.438;11.098;2023-06-22T04:09:15;24.40;63.10
38237;DHT22;50101;49.438;11.098;2023-06-22T04:11:42;24.40;63.00
38237;DHT22;50101;49.438;11.098;2023-06-22T04:14:09;24.40;62.90
38237;DHT22;50101;49.438;11.098;2023-06-22T04:16:36;24.40;63.10
38237;DHT22;50101;49.438;11.098;2023-06-22T04:19:02;24.40;62.90
38237;DHT22;50101;49.438;11.098;2023-06-22T04:21:29;24.40;63.00
38237;DHT22;50101;49.438;11.098;2023-06-22T04:23:56;24.40;63.70
38237;DHT22;50101;49.438;11.098;2023-06-22T04:26:22;24.40;63.00
38237;DHT22;50101;49.438;11.098;2023-06-22T04:28:49;24.40;63.00
38237;DHT22;50101;49.438;11.098;2023-06-22T04:31:22;24.40;63.00
38237;DHT22;50101;49.438;11.098;2023-06-22T04:33:53;24.40;63.00
38237;DHT22;50101;49.438;11.098;2023-06-22T04:36:20;24.40;62.90
38237;DHT22;50101;49.438;11.098;2023-06-22T04:38:49;24.40;62.90
38237;DHT22;50101;49.438;11.098;2023-06-22T04:41:19;24.40;63.00
38237;DHT22;50101;49.438;11.098;2023-06-22T04:43:50;24.40;63.00
38237;DHT22;50101;49.438;11.098;2023-06-22T04:46:20;24.40;63.80
38237;DHT22;50101;49.438;11.098;2023-06-22T04:48:47;24.40;63.10
38237;DHT22;50101;49.438;11.098;2023-06-22T04:51:14;24.40;63.10
38237;DHT22;50101;49.438;11.098;2023-06-22T04:53:41;24.40;63.10
38237;DHT22;50101;49.438;11.098;2023-06-22T04:56:08;24.40;63.10
38237;DHT22;50101;49.438;11.098;2023-06-22T04:58:35;24.50;63.10
38237;DHT22;50101;49.438;11.098;2023-06-22T05:01:01;24.50;63.30
38237;DHT22;50101;49.438;11.098;2023-06-22T05:03:30;24.40;63.30
38237;DHT22;50101;49.438;11.098;2023-06-22T05:05:57;24.40;63.10
38237;DHT22;50101;49.438;11.098;2023-06-22T05:08:23;24.40;63.20
38237;DHT22;50101;49.438;11.098;2023-06-22T05:10:53;24.40;63.30
38237;DHT22;50101;49.438;11.098;2023-06-22T05:13:31;24.40;63.10
38237;DHT22;50101;49.438;11.098;2023-06-22T05:15:58;24.40;63.10
38237;DHT22;50101;49.438;11.098;2023-06-22T05:18:31;24.40;63.10
38237;DHT22;50101;49.438;11.098;2023-06-22T05:20:59;24.40;63.20
38237;DHT22;50101;49.438;11.098;2023-06-22T05:23:26;24.40;63.20
38237;DHT22;50101;49.438;11.098;2023-06-22T05:25:52;24.40;63.20
38237;DHT22;50101;49.438;11.098;2023-06-22T05:28:21;24.40;63.20
38237;DHT22;50101;49.438;11.098;2023-06-22T05:30:49;24.40;63.20
38237;DHT22;50101;49.438;11.098;2023-06-22T05:33:16;24.40;63.30
38237;DHT22;50101;49.438;11.098;2023-06-22T05:35:43;24.40;63.30
38237;DHT22;50101;49.438;11.098;2023-06-22T05:38:09;24.40;63.30
38237;DHT22;50101;49.438;11.098;2023-06-22T05:40:36;24.40;63.20
38237;DHT22;50101;49.438;11.098;2023-06-22T05:43:03;24.40;63.10
38237;DHT22;50101;49.438;11.098;2023-06-22T05:45:30;24.40;63.40
38237;DHT22;50101;49.438;11.098;2023-06-22T05:47:57;24.40;64.40
38237;DHT22;50101;49.438;11.098;2023-06-22T05:50:23;24.40;64.80
38237;DHT22;50101;49.438;11.098;2023-06-22T05:52:50;24.50;66.00
38237;DHT22;50101;49.438;11.098;2023-06-22T05:55:17;24.40;66.50
38237;DHT22;50101;49.438;11.098;2023-06-22T05:57:45;24.10;70.10
38237;DHT22;50101;49.438;11.098;2023-06-22T06:00:12;24.00;70.80
38237;DHT22;50101;49.438;11.098;2023-06-22T06:02:40;24.10;70.70
38237;DHT22;50101;49.438;11.098;2023-06-22T06:05:11;24.00;71.90
38237;DHT22;50101;49.438;11.098;2023-06-22T06:07:41;24.10;72.60
38237;DHT22;50101;49.438;11.098;2023-06-22T06:10:08;24.10;73.10
38237;DHT22;50101;49.438;11.098;2023-06-22T06:12:35;24.00;73.80
38237;DHT22;50101;49.438;11.098;2023-06-22T06:15:03;24.10;73.60
38237;DHT22;50101;49.438;11.098;2023-06-22T06:17:30;24.00;74.50
38237;DHT22;50101;49.438;11.098;2023-06-22T06:19:59;24.00;75.20
38237;DHT22;50101;49.438;11.098;2023-06-22T06:22:25;24.00;74.80
38237;DHT22;50101;49.438;11.098;2023-06-22T06:24:52;24.00;74.20
38237;DHT22;50101;49.438;11.098;2023-06-22T06:27:19;24.10;73.70
38237;DHT22;50101;49.438;11.098;2023-06-22T06:29:45;24.10;73.20
38237;DHT22;50101;49.438;11.098;2023-06-22T06:32:14;24.20;73.50
38237;DHT22;50101;49.438;11.098;2023-06-22T06:34:41;24.30;73.00
38237;DHT22;50101;49.438;11.098;2023-06-22T06:37:09;24.30;72.40
38237;DHT22;50101;49.438;11.098;2023-06-22T06:39:36;24.30;72.20
38237;DHT22;50101;49.438;11.098;2023-06-22T06:42:04;24.30;72.80
38237;DHT22;50101;49.438;11.098;2023-06-22T06:44:31;24.40;72.20
38237;DHT22;50101;49.438;11.098;2023-06-22T06:46:58;24.40;71.70
38237;DHT22;50101;49.438;11.098;2023-06-22T06:49:24;24.30;72.40
38237;DHT22;50101;49.438;11.098;2023-06-22T06:51:51;24.40;71.50
38237;DHT22;50101;49.438;11.098;2023-06-22T06:54:18;24.40;71.90
38237;DHT22;50101;49.438;11.098;2023-06-22T06:56:47;24.50;71.70
38237;DHT22;50101;49.438;11.098;2023-06-22T06:59:15;24.50;71.50
38237;DHT22;50101;49.438;11.098;2023-06-22T07:01:42;24.40;71.10
38237;DHT22;50101;49.438;11.098;2023-06-22T07:04:11;24.50;71.10
38237;DHT22;50101;49.438;11.098;2023-06-22T07:06:38;24.50;70.90
38237;DHT22;50101;49.438;11.098;2023-06-22T07:09:05;24.50;71.30
38237;DHT22;50101;49.438;11.098;2023-06-22T07:11:32;24.50;71.10
38237;DHT22;50101;49.438;11.098;2023-06-22T07:13:59;24.50;70.40
38237;DHT22;50101;49.438;11.098;2023-06-22T07:16:27;24.60;70.80
38237;DHT22;50101;49.438;11.098;2023-06-22T07:18:55;24.60;71.10
38237;DHT22;50101;49.438;11.098;2023-06-22T07:21:22;24.60;71.00
38237;DHT22;50101;49.438;11.098;2023-06-22T07:23:48;24.60;70.70
38237;DHT22;50101;49.438;11.098;2023-06-22T07:26:15;24.60;70.10
38237;DHT22;50101;49.438;11.098;2023-06-22T07:28:42;24.60;70.70
38237;DHT22;50101;49.438;11.098;2023-06-22T07:31:09;24.60;70.00
38237;DHT22;50101;49.438;11.098;2023-06-22T07:33:36;24.60;70.00
38237;DHT22;50101;49.438;11.098;2023-06-22T07:36:02;24.60;70.00
38237;DHT22;50101;49.438;11.098;2023-06-22T07:38:34;24.60;69.60
38237;DHT22;50101;49.438;11.098;2023-06-22T07:41:02;24.60;69.50
38237;DHT22;50101;49.438;11.098;2023-06-22T07:43:31;24.60;69.40
38237;DHT22;50101;49.438;11.098;2023-06-22T07:45:59;24.60;69.30
38237;DHT22;50101;49.438;11.098;2023-06-22T07:48:26;24.60;69.10
38237;DHT22;50101;49.438;11.098;2023-06-22T07:50:53;24.70;69.20
38237;DHT22;50101;49.438;11.098;2023-06-22T07:53:20;24.70;68.90
38237;DHT22;50101;49.438;11.098;2023-06-22T07:55:48;24.60;68.90
38237;DHT22;50101;49.438;11.098;2023-06-22T07:58:16;24.60;69.10
38237;DHT22;50101;49.438;11.098;2023-06-22T08:00:45;24.70;68.70
38237;DHT22;50101;49.438;11.098;2023-06-22T08:03:12;24.70;68.70
38237;DHT22;50101;49.438;11.098;2023-06-22T08:05:38;24.60;68.60
38237;DHT22;50101;49.438;11.098;2023-06-22T08:08:06;24.70;68.70
38237;DHT22;50101;49.438;11.098;2023-06-22T08:10:32;24.70;68.60
38237;DHT22;50101;49.438;11.098;2023-06-22T08:12:59;24.70;68.60
38237;DHT22;50101;49.438;11.098;2023-06-22T08:15:26;24.70;68.60
38237;DHT22;50101;49.438;11.098;2023-06-22T08:17:54;24.80;68.70
38237;DHT22;50101;49.438;11.098;2023-06-22T08:20:20;24.80;68.20
38237;DHT22;50101;49.438;11.098;2023-06-22T08:22:47;24.70;68.30
38237;DHT22;50101;49.438;11.098;2023-06-22T08:25:14;24.70;68.40
38237;DHT22;50101;49.438;11.098;2023-06-22T08:27:45;24.70;68.30
38237;DHT22;50101;49.438;11.098;2023-06-22T08:30:13;24.70;68.10
38237;DHT22;50101;49.438;11.098;2023-06-22T08:32:39;24.70;68.30
38237;DHT22;50101;49.438;11.098;2023-06-22T08:35:06;24.80;68.00
38237;DHT22;50101;49.438;11.098;2023-06-22T08:37:35;24.70;67.90
38237;DHT22;50101;49.438;11.098;2023-06-22T08:40:05;24.70;67.90
38237;DHT22;50101;49.438;11.098;2023-06-22T08:42:33;24.70;68.10
38237;DHT22;50101;49.438;11.098;2023-06-22T08:45:00;24.70;68.00
38237;DHT22;50101;49.438;11.098;2023-06-22T08:47:28;24.70;68.00
38237;DHT22;50101;49.438;11.098;2023-06-22T08:49:55;24.70;68.00
38237;DHT22;50101;49.438;11.098;2023-06-22T08:52:23;24.70;68.00
38237;DHT22;50101;49.438;11.098;2023-06-22T08:54:50;24.70;68.00
38237;DHT22;50101;49.438;11.098;2023-06-22T08:57:17;24.80;68.00
38237;DHT22;50101;49.438;11.098;2023-06-22T08:59:44;24.80;67.90
38237;DHT22;50101;49.438;11.098;2023-06-22T09:02:11;24.70;67.80
38237;DHT22;50101;49.438;11.098;2023-06-22T09:04:38;24.70;67.90
38237;DHT22;50101;49.438;11.098;2023-06-22T09:07:05;24.70;67.90
38237;DHT22;50101;49.438;11.098;2023-06-22T09:09:31;24.70;67.80
38237;DHT22;50101;49.438;11.098;2023-06-22T09:11:58;24.70;67.90
38237;DHT22;50101;49.438;11.098;2023-06-22T09:14:25;24.80;67.90
38237;DHT22;50101;49.438;11.098;2023-06-22T09:16:52;24.70;67.80
38237;DHT22;50101;49.438;11.098;2023-06-22T09:19:18;24.70;67.90
38237;DHT22;50101;49.438;11.098;2023-06-22T09:21:45;24.70;67.70
38237;DHT22;50101;49.438;11.098;2023-06-22T09:24:12;24.80;67.70
38237;DHT22;50101;49.438;11.098;2023-06-22T09:26:39;24.80;67.90
38237;DHT22;50101;49.438;11.098;2023-06-22T09:29:06;24.80;67.40
38237;DHT22;50101;49.438;11.098;2023-06-22T09:31:33;24.80;67.90
38237;DHT22;50101;49.438;11.098;2023-06-22T09:33:59;24.80;67.50
38237;DHT22;50101;49.438;11.098;2023-06-22T09:36:26;24.90;67.60
38237;DHT22;50101;49.438;11.098;2023-06-22T09:38:53;24.90;67.40
38237;DHT22;50101;49.438;11.098;2023-06-22T09:41:22;24.90;67.50
38237;DHT22;50101;49.438;11.098;2023-06-22T09:43:49;25.00;67.50
38237;DHT22;50101;49.438;11.098;2023-06-22T09:46:17;25.00;67.30
38237;DHT22;50101;49.438;11.098;2023-06-22T09:48:43;25.00;67.50
38237;DHT22;50101;49.438;11.098;2023-06-22T09:51:11;25.10;67.30
38237;DHT22;50101;49.438;11.098;2023-06-22T09:53:37;25.20;67.30
38237;DHT22;50101;49.438;11.098;2023-06-22T09:56:04;25.10;67.00
38237;DHT22;50101;49.438;11.098;2023-06-22T09:58:32;25.00;66.90
38237;DHT22;50101;49.438;11.098;2023-06-22T10:00:59;25.00;67.10
38237;DHT22;50101;49.438;11.098;2023-06-22T10:03:26;25.00;67.30
38237;DHT22;50101;49.438;11.098;2023-06-22T10:05:53;25.00;67.20
38237;DHT22;50101;49.438;11.098;2023-06-22T10:08:20;24.90;67.00
38237;DHT22;50101;49.438;11.098;2023-06-22T10:10:46;24.90;67.20
38237;DHT22;50101;49.438;11.098;2023-06-22T10:13:13;24.80;67.30
38237;DHT22;50101;49.438;11.098;2023-06-22T10:15:42;24.80;67.30
38237;DHT22;50101;49.438;11.098;2023-06-22T10:18:09;24.90;67.50
38237;DHT22;50101;49.438;11.098;2023-06-22T10:20:35;24.90;67.40
38237;DHT22;50101;49.438;11.098;2023-06-22T10:23:02;24.90;67.10
38237;DHT22;50101;49.438;11.098;2023-06-22T10:25:29;24.90;67.30
38237;DHT22;50101;49.438;11.098;2023-06-22T10:27:56;24.80;67.20
38237;DHT22;50101;49.438;11.098;2023-06-22T10:30:23;24.90;67.30
38237;DHT22;50101;49.438;11.098;2023-06-22T10:32:50;24.90;67.30
38237;DHT22;50101;49.438;11.098;2023-06-22T10:35:17;24.80;67.30
38237;DHT22;50101;49.438;11.098;2023-06-22T10:37:45;24.80;67.10
38237;DHT22;50101;49.438;11.098;2023-06-22T10:40:13;24.80;67.10
38237;DHT22;50101;49.438;11.098;2023-06-22T10:42:41;24.80;67.10
38237;DHT22;50101;49.438;11.098;2023-06-22T10:45:08;24.90;67.00
38237;DHT22;50101;49.438;11.098;2023-06-22T10:47:35;24.90;67.00
38237;DHT22;50101;49.438;11.098;2023-06-22T10:50:03;24.90;66.90
38237;DHT22;50101;49.438;11.098;2023-06-22T10:52:30;24.90;67.00
38237;DHT22;50101;49.438;11.098;2023-06-22T10:54:57;24.90;67.00
38237;DHT22;50101;49.438;11.098;2023-06-22T10:57:24;24.90;66.80
38237;DHT22;50101;49.438;11.098;2023-06-22T10:59:51;24.90;66.80
38237;DHT22;50101;49.438;11.098;2023-06-22T11:02:18;24.90;66.90
38237;DHT22;50101;49.438;11.098;2023-06-22T11:04:45;25.00;67.10
38237;DHT22;50101;49.438;11.098;2023-06-22T11:07:13;25.10;66.60
38237;DHT22;50101;49.438;11.098;2023-06-22T11:09:40;25.00;66.50
38237;DHT22;50101;49.438;11.098;2023-06-22T11:12:07;25.00;66.70
38237;DHT22;50101;49.438;11.098;2023-06-22T11:14:33;24.90;66.80
38237;DHT22;50101;49.438;11.098;2023-06-22T11:17:00;24.90;67.00
38237;DHT22;50101;49.438;11.098;2023-06-22T11:19:27;24.90;67.00
38237;DHT22;50101;49.438;11.098;2023-06-22T11:21:53;24.90;66.90
38237;DHT22;50101;49.438;11.098;2023-06-22T11:24:20;24.90;66.80
38237;DHT22;50101;49.438;11.098;2023-06-22T11:26:47;24.90;66.80
38237;DHT22;50101;49.438;11.098;2023-06-22T11:29:14;25.00;67.60
38237;DHT22;50101;49.438;11.098;2023-06-22T11:32:00;25.00;66.60
38237;DHT22;50101;49.438;11.098;2023-06-22T11:34:27;25.00;66.50
38237;DHT22;50101;49.438;11.098;2023-06-22T11:36:54;25.00;66.50
38237;DHT22;50101;49.438;11.098;2023-06-22T11:39:21;25.00;66.90
38237;DHT22;50101;49.438;11.098;2023-06-22T11:42:04;25.00;66.60
38237;DHT22;50101;49.438;11.098;2023-06-22T11:44:31;25.00;66.70
38237;DHT22;50101;49.438;11.098;2023-06-22T11:46:58;25.00;66.80
38237;DHT22;50101;49.438;11.098;2023-06-22T11:49:27;25.00;66.60
38237;DHT22;50101;49.438;11.098;2023-06-22T11:51:54;25.00;66.60
38237;DHT22;50101;49.438;11.098;2023-06-22T11:54:20;25.10;66.70
38237;DHT22;50101;49.438;11.098;2023-06-22T11:56:47;25.00;66.90
38237;DHT22;50101;49.438;11.098;2023-06-22T11:59:14;25.00;66.70
38237;DHT22;50101;49.438;11.098;2023-06-22T12:01:41;25.10;66.90
38237;DHT22;50101;49.438;11.098;2023-06-22T12:04:07;25.10;67.00
38237;DHT22;50101;49.438;11.098;2023-06-22T12:06:38;25.20;66.80
38237;DHT22;50101;49.438;11.098;2023-06-22T12:09:08;25.10;67.00
38237;DHT22;50101;49.438;11.098;2023-06-22T12:11:35;25.10;66.60
38237;DHT22;50101;49.438;11.098;2023-06-22T12:14:02;25.20;66.80
38237;DHT22;50101;49.438;11.098;2023-06-22T12:16:29;25.20;66.80
38237;DHT22;50101;49.438;11.098;2023-06-22T12:18:56;25.20;66.80
38237;DHT22;50101;49.438;11.098;2023-06-22T12:21:22;25.10;67.00
38237;DHT22;50101;49.438;11.098;2023-06-22T12:23:49;25.10;66.80
38237;DHT22;50101;49.438;11.098;2023-06-22T12:26:16;25.10;67.00
38237;DHT22;50101;49.438;11.098;2023-06-22T12:28:43;25.10;66.70
38237;DHT22;50101;49.438;11.098;2023-06-22T12:31:10;25.10;67.00
38237;DHT22;50101;49.438;11.098;2023-06-22T12:33:37;25.10;67.00
38237;DHT22;50101;49.438;11.098;2023-06-22T12:36:04;25.10;66.90
38237;DHT22;50101;49.438;11.098;2023-06-22T12:38:31;25.20;67.30
38237;DHT22;50101;49.438;11.098;2023-06-22T12:40:58;25.20;67.50
38237;DHT22;50101;49.438;11.098;2023-06-22T12:43:25;25.20;67.20
38237;DHT22;50101;49.438;11.098;2023-06-22T12:45:51;25.20;67.20
38237;DHT22;50101;49.438;11.098;2023-06-22T12:48:20;25.30;67.30
38237;DHT22;50101;49.438;11.098;2023-06-22T12:50:46;25.20;67.20
38237;DHT22;50101;49.438;11.098;2023-06-22T12:53:14;25.20;66.90
38237;DHT22;50101;49.438;11.098;2023-06-22T12:55:41;25.20;66.90
38237;DHT22;50101;49.438;11.098;2023-06-22T12:58:07;25.20;67.20
38237;DHT22;50101;49.438;11.098;2023-06-22T13:00:34;25.20;67.20
38237;DHT22;50101;49.438;11.098;2023-06-22T13:03:01;25.30;67.50
38237;DHT22;50101;49.438;11.098;2023-06-22T13:05:28;25.20;67.20
38237;DHT22;50101;49.438;11.098;2023-06-22T13:07:54;25.20;67.00
38237;DHT22;50101;49.438;11.098;2023-06-22T13:10:21;25.20;67.20
38237;DHT22;50101;49.438;11.098;2023-06-22T13:12:48;25.20;67.10
38237;DHT22;50101;49.438;11.098;2023-06-22T13:15:15;25.20;67.10
38237;DHT22;50101;49.438;11.098;2023-06-22T13:17:41;25.20;67.20
38237;DHT22;50101;49.438;11.098;2023-06-22T13:20:09;25.20;67.00
38237;DHT22;50101;49.438;11.098;2023-06-22T13:22:35;25.10;67.70
38237;DHT22;50101;49.438;11.098;2023-06-22T13:25:06;25.10;67.00
38237;DHT22;50101;49.438;11.098;2023-06-22T13:27:33;25.10;67.10
38237;DHT22;50101;49.438;11.098;2023-06-22T13:30:00;25.10;67.10
38237;DHT22;50101;49.438;11.098;2023-06-22T13:32:27;25.10;67.00
38237;DHT22;50101;49.438;11.098;2023-06-22T13:34:54;25.20;67.30
38237;DHT22;50101;49.438;11.098;2023-06-22T13:37:20;25.10;66.90
38237;DHT22;50101;49.438;11.098;2023-06-22T13:39:47;25.10;67.00
38237;DHT22;50101;49.438;11.098;2023-06-22T13:42:14;25.20;67.20
38237;DHT22;50101;49.438;11.098;2023-06-22T13:44:40;25.20;67.00
38237;DHT22;50101;49.438;11.098;2023-06-22T13:47:07;25.20;66.90
38237;DHT22;50101;49.438;11.098;2023-06-22T13:49:34;25.10;66.80
38237;DHT22;50101;49.438;11.098;2023-06-22T13:52:01;25.10;67.00
38237;DHT22;50101;49.438;11.098;2023-06-22T13:54:29;25.10;67.00
38237;DHT22;50101;49.438;11.098;2023-06-22T13:59:26;25.10;66.30
38237;DHT22;50101;49.438;11.098;2023-06-22T14:01:54;25.10;67.10
38237;DHT22;50101;49.438;11.098;2023-06-22T14:04:23;25.20;67.20
38237;DHT22;50101;49.438;11.098;2023-06-22T14:06:50;25.20;66.80
38237;DHT22;50101;49.438;11.098;2023-06-22T14:09:17;25.10;66.70
38237;DHT22;50101;49.438;11.098;2023-06-22T14:11:44;25.10;66.80
38237;DHT22;50101;49.438;11.098;2023-06-22T14:14:10;25.20;67.20
38237;DHT22;50101;49.438;11.098;2023-06-22T14:16:37;25.20;66.90
38237;DHT22;50101;49.438;11.098;2023-06-22T14:19:04;25.20;66.80
38237;DHT22;50101;49.438;11.098;2023-06-22T14:21:30;25.20;66.90
38237;DHT22;50101;49.438;11.098;2023-06-22T14:23:57;25.10;66.80
38237;DHT22;50101;49.438;11.098;2023-06-22T14:26:24;25.10;67.60
38237;DHT22;50101;49.438;11.098;2023-06-22T14:28:50;25.10;66.90
38237;DHT22;50101;49.438;11.098;2023-06-22T14:31:18;25.10;67.00
38237;DHT22;50101;49.438;11.098;2023-06-22T14:33:49;25.10;67.10
38237;DHT22;50101;49.438;11.098;2023-06-22T14:36:16;25.10;67.10
38237;DHT22;50101;49.438;11.098;2023-06-22T14:38:46;25.20;67.10
38237;DHT22;50101;49.438;11.098;2023-06-22T14:41:14;25.10;66.80
38237;DHT22;50101;49.438;11.098;2023-06-22T14:43:45;25.20;67.20
38237;DHT22;50101;49.438;11.098;2023-06-22T14:46:15;25.20;67.20
38237;DHT22;50101;49.438;11.098;2023-06-22T14:48:42;25.30;67.30
38237;DHT22;50101;49.438;11.098;2023-06-22T14:51:09;25.30;67.10
38237;DHT22;50101;49.438;11.098;2023-06-22T14:53:42;25.20;67.10
38237;DHT22;50101;49.438;11.098;2023-06-22T14:56:10;25.20;67.10
38237;DHT22;50101;49.438;11.098;2023-06-22T14:58:36;25.20;67.20
38237;DHT22;50101;49.438;11.098;2023-06-22T15:01:03;25.20;67.10
38237;DHT22;50101;49.438;11.098;2023-06-22T15:03:31;25.20;67.00
38237;DHT22;50101;49.438;11.098;2023-06-22T15:06:00;25.20;67.20
38237;DHT22;50101;49.438;11.098;2023-06-22T15:08:27;25.20;67.30
38237;DHT22;50101;49.438;11.098;2023-06-22T15:10:54;25.20;67.20
38237;DHT22;50101;49.438;11.098;2023-06-22T15:13:21;25.20;67.20
38237;DHT22;50101;49.438;11.098;2023-06-22T15:15:52;25.10;67.20
38237;DHT22;50101;49.438;11.098;2023-06-22T15:18:19;25.20;67.30
38237;DHT22;50101;49.438;11.098;2023-06-22T15:20:46;25.20;67.40
38237;DHT22;50101;49.438;11.098;2023-06-22T15:23:14;25.20;67.20